createdAt,value
2023-01-22T00:00:30.169Z,64.10
2023-01-22T00:05:32.331Z,58.03
2023-01-22T00:10:34.385Z,53.42
2023-01-22T00:15:39.009Z,53.53
2023-01-22T00:20:41.771Z,64.50
2023-01-22T00:25:44.366Z,58.05
2023-01-22T00:30:46.379Z,46.30
2023-01-22T00:35:48.416Z,47.25
2023-01-22T00:40:50.475Z,53.22
2023-01-22T00:45:52.624Z,54.60
2023-01-22T00:50:55.310Z,48.58
2023-01-22T00:55:59.990Z,54.92
2023-01-22T01:01:03.456Z,47.10
2023-01-22T01:06:12.304Z,52.10
2023-01-22T01:11:23.045Z,53.35
2023-01-22T01:16:29.620Z,59.60
2023-01-22T01:21:33.576Z,60.03
2023-01-22T01:26:35.678Z,47.55
2023-01-22T01:31:39.313Z,57.92
2023-01-22T01:36:49.262Z,44.75
2023-01-22T01:41:52.121Z,47.17
2023-01-22T01:47:00.240Z,49.38
2023-01-22T01:52:10.533Z,45.72
2023-01-22T01:57:18.166Z,54.13
2023-01-22T02:02:20.774Z,43.10
2023-01-22T02:07:24.174Z,44.88
2023-01-22T02:12:26.509Z,44.38
2023-01-22T02:17:28.740Z,44.10
2023-01-22T02:22:33.436Z,40.00
2023-01-22T02:27:36.472Z,42.45
2023-01-22T02:32:40.613Z,41.35
2023-01-22T02:37:42.737Z,41.97
2023-01-22T02:42:45.069Z,40.53
2023-01-22T02:47:47.349Z,37.58
2023-01-22T02:52:49.436Z,38.17
2023-01-22T02:57:51.696Z,41.65
2023-01-22T03:02:53.762Z,34.97
2023-01-22T03:07:56.173Z,37.20
2023-01-22T03:13:17.017Z,34.83
2023-01-22T03:18:38.988Z,34.72
2023-01-22T03:28:43.623Z,35.58
2023-01-22T03:33:46.294Z,28.60
2023-01-22T03:38:48.853Z,31.08
2023-01-22T03:43:55.152Z,34.97
2023-01-22T03:49:03.687Z,32.47
2023-01-22T03:54:06.663Z,31.60
2023-01-22T03:59:10.008Z,35.80
2023-01-22T04:04:12.261Z,32.20
2023-01-22T04:09:17.249Z,31.60
2023-01-22T04:14:23.335Z,31.95
2023-01-22T04:19:34.120Z,32.75
2023-01-22T04:24:46.654Z,31.88
2023-01-22T04:29:50.172Z,30.25
2023-01-22T04:34:53.985Z,31.98
2023-01-22T04:40:11.808Z,28.48
2023-01-22T04:45:14.222Z,32.08
2023-01-22T04:50:36.952Z,33.55
2023-01-22T04:55:39.154Z,32.83
2023-01-22T05:00:43.818Z,32.90
2023-01-22T05:05:46.705Z,32.75
2023-01-22T05:10:49.209Z,29.45
2023-01-22T05:15:57.062Z,30.27
2023-01-22T05:21:01.144Z,32.03
2023-01-22T05:26:06.011Z,29.13
2023-01-22T05:31:15.712Z,33.38
2023-01-22T05:36:38.041Z,38.17
2023-01-22T05:41:46.824Z,39.85
2023-01-22T05:46:50.126Z,31.77
2023-01-22T05:52:10.805Z,30.50
2023-01-22T05:57:14.268Z,30.95
2023-01-22T06:02:16.533Z,33.05
2023-01-22T06:07:20.169Z,33.30
2023-01-22T06:12:23.005Z,25.88
2023-01-22T06:17:25.187Z,29.30
2023-01-22T06:22:31.824Z,27.33
2023-01-22T06:27:36.717Z,26.05
2023-01-22T06:32:38.940Z,22.77
2023-01-22T06:37:40.981Z,25.95
2023-01-22T06:42:43.270Z,26.08
2023-01-22T06:47:46.682Z,25.17
2023-01-22T06:52:50.043Z,24.75
2023-01-22T06:57:55.155Z,24.35
2023-01-22T07:02:57.663Z,24.08
2023-01-22T07:07:59.965Z,26.52
2023-01-22T07:13:04.154Z,24.45
2023-01-22T07:18:06.209Z,24.40
2023-01-22T07:23:10.504Z,22.35
2023-01-22T07:28:14.906Z,24.10
2023-01-22T07:33:18.824Z,26.20
2023-01-22T07:38:21.100Z,22.85
2023-01-22T07:43:23.104Z,25.48
2023-01-22T07:48:25.253Z,25.17
2023-01-22T07:53:27.783Z,23.95
2023-01-22T07:58:29.865Z,21.30
2023-01-22T08:03:33.897Z,21.70
2023-01-22T08:08:36.047Z,27.00
2023-01-22T08:13:38.069Z,21.88
2023-01-22T08:18:40.165Z,22.08
2023-01-22T08:23:44.418Z,22.30
2023-01-22T08:28:48.416Z,24.52
2023-01-22T08:33:50.468Z,23.25
2023-01-22T08:38:52.843Z,22.60
2023-01-22T08:43:55.124Z,21.63
2023-01-22T08:48:57.347Z,28.05
2023-01-22T08:53:59.565Z,22.80
2023-01-22T08:59:06.340Z,26.77
2023-01-22T09:04:10.314Z,23.27
2023-01-22T09:09:12.626Z,23.60
2023-01-22T09:14:14.667Z,23.77
2023-01-22T09:19:16.848Z,22.05
2023-01-22T09:24:18.884Z,22.00
2023-01-22T09:29:20.954Z,24.73
2023-01-22T09:34:23.012Z,25.55
2023-01-22T09:39:26.147Z,26.20
2023-01-22T09:44:38.137Z,23.40
2023-01-22T09:49:57.229Z,23.48
2023-01-22T09:54:59.788Z,21.40
2023-01-22T10:00:02.555Z,20.75
2023-01-22T10:05:44.590Z,22.88
2023-01-22T10:10:47.289Z,23.88
2023-01-22T10:15:51.731Z,20.42
2023-01-22T10:20:55.338Z,23.27
2023-01-22T10:26:14.945Z,21.27
2023-01-22T10:31:37.704Z,22.80
2023-01-22T10:36:40.209Z,22.33
2023-01-22T10:41:44.278Z,23.15
2023-01-22T10:46:49.116Z,20.70
2023-01-22T10:51:59.488Z,20.13
2023-01-22T10:57:19.554Z,20.38
2023-01-22T11:02:24.871Z,20.88
2023-01-22T11:07:32.780Z,21.27
2023-01-22T11:12:41.359Z,22.08
2023-01-22T11:17:49.859Z,22.65
2023-01-22T11:23:09.435Z,18.58
2023-01-22T11:28:29.170Z,18.23
2023-01-22T11:33:49.448Z,17.38
2023-01-22T11:38:54.562Z,19.60
2023-01-22T11:44:21.647Z,18.08
2023-01-22T11:49:23.797Z,18.58
2023-01-22T11:54:41.046Z,16.13
2023-01-22T11:59:45.906Z,20.52
2023-01-22T12:05:09.806Z,23.85
2023-01-22T12:10:11.927Z,17.73
2023-01-22T12:15:49.226Z,18.73
2023-01-22T12:21:14.528Z,19.67
2023-01-22T12:26:26.476Z,22.02
2023-01-22T12:31:37.398Z,18.50
2023-01-22T12:36:40.247Z,17.15
2023-01-22T12:42:13.637Z,19.08
2023-01-22T12:47:50.020Z,21.13
2023-01-22T12:53:01.099Z,15.65
2023-01-22T12:58:04.240Z,15.30
2023-01-22T13:03:31.612Z,19.40
2023-01-22T13:08:45.315Z,16.20
2023-01-22T13:13:51.879Z,15.82
2023-01-22T13:18:55.722Z,18.70
2023-01-22T13:24:01.893Z,17.63
2023-01-22T13:29:18.107Z,18.80
2023-01-22T13:34:20.348Z,17.85
2023-01-22T13:39:28.387Z,18.55
2023-01-22T13:44:39.991Z,18.98
2023-01-22T13:49:43.180Z,25.92
2023-01-22T13:55:06.535Z,18.23
2023-01-22T14:00:22.743Z,20.63
2023-01-22T14:05:27.579Z,19.38
2023-01-22T14:10:29.720Z,19.67
2023-01-22T14:15:32.290Z,18.92
2023-01-22T14:20:34.425Z,19.08
2023-01-22T14:25:38.408Z,19.23
2023-01-22T14:30:40.642Z,19.35
2023-01-22T14:35:42.724Z,30.73
2023-01-22T14:40:45.812Z,29.00
2023-01-22T14:45:47.997Z,24.85
2023-01-22T14:50:50.814Z,26.38
2023-01-22T14:55:52.830Z,22.58
2023-01-22T15:00:54.938Z,28.38
2023-01-22T15:05:57.610Z,19.02
2023-01-22T15:11:00.757Z,19.85
2023-01-22T15:16:11.133Z,20.70
2023-01-22T15:21:13.325Z,23.20
2023-01-22T15:26:35.317Z,21.05
2023-01-22T15:31:37.696Z,24.30
2023-01-22T15:36:39.940Z,23.40
2023-01-22T15:41:43.132Z,23.73
2023-01-22T15:46:46.243Z,21.05
2023-01-22T15:51:48.400Z,23.13
2023-01-22T15:56:50.516Z,24.20
2023-01-22T16:01:52.570Z,26.75
2023-01-22T16:06:54.607Z,22.98
2023-01-22T16:11:57.342Z,26.35
2023-01-22T16:17:00.519Z,27.80
2023-01-22T16:22:02.871Z,25.02
2023-01-22T16:27:05.037Z,24.90
2023-01-22T16:32:07.095Z,23.52
2023-01-22T16:37:09.118Z,23.38
2023-01-22T16:42:11.158Z,27.67
2023-01-22T16:47:13.429Z,27.90
2023-01-22T16:52:22.492Z,25.15
2023-01-22T16:57:25.110Z,30.20
2023-01-22T17:02:27.219Z,24.83
2023-01-22T17:07:33.990Z,33.30
2023-01-22T17:12:36.470Z,29.65
2023-01-22T17:17:38.598Z,28.38
2023-01-22T17:22:40.740Z,29.40
2023-01-22T17:27:42.825Z,29.48
2023-01-22T17:32:46.551Z,28.30
2023-01-22T17:37:49.773Z,29.50
2023-01-22T17:42:51.864Z,27.25
2023-01-22T17:47:53.892Z,31.77
2023-01-22T17:52:55.901Z,27.52
2023-01-22T17:57:59.729Z,29.23
2023-01-22T18:03:01.991Z,33.00
2023-01-22T18:08:04.282Z,28.30
2023-01-22T18:13:06.453Z,32.58
2023-01-22T18:18:08.849Z,34.10
2023-01-22T18:23:12.923Z,32.05
2023-01-22T18:28:16.412Z,34.53
2023-01-22T18:33:20.540Z,33.28
2023-01-22T18:38:26.158Z,40.42
2023-01-22T18:43:28.192Z,35.83
2023-01-22T18:48:30.352Z,31.85
2023-01-22T18:53:35.364Z,33.75
2023-01-22T18:58:38.560Z,32.60
2023-01-22T19:03:42.603Z,32.92
2023-01-22T19:08:47.206Z,39.22
2023-01-22T19:13:52.909Z,37.97
2023-01-22T19:19:11.503Z,34.05
2023-01-22T19:24:15.916Z,31.15
2023-01-22T19:29:18.359Z,34.33
2023-01-22T19:34:25.820Z,37.50
2023-01-22T19:39:28.186Z,33.13
2023-01-22T19:44:31.435Z,38.22
2023-01-22T19:49:33.547Z,42.30
2023-01-22T19:54:40.428Z,35.67
2023-01-22T19:59:42.834Z,41.58
2023-01-22T20:04:45.063Z,42.08
2023-01-22T20:09:47.276Z,38.15
2023-01-22T20:14:49.399Z,39.47
2023-01-22T20:19:52.034Z,37.83
2023-01-22T20:24:54.173Z,41.22
2023-01-22T20:29:56.344Z,41.13
2023-01-22T20:34:58.734Z,38.60
2023-01-22T20:40:00.848Z,39.63
2023-01-22T20:45:04.214Z,46.83
2023-01-22T20:50:06.839Z,42.15
2023-01-22T20:55:10.331Z,43.63
2023-01-22T21:00:13.005Z,41.72
2023-01-22T21:05:15.139Z,37.58
2023-01-22T21:10:17.389Z,48.40
2023-01-22T21:15:19.584Z,54.55
2023-01-22T21:20:21.775Z,47.75
2023-01-22T21:25:23.874Z,50.90
2023-01-22T21:30:25.861Z,38.53
2023-01-22T21:35:27.844Z,40.03
2023-01-22T21:40:30.459Z,42.25
2023-01-22T21:45:50.910Z,42.33
2023-01-22T21:50:53.085Z,39.88
2023-01-22T21:55:55.362Z,36.30
2023-01-22T22:01:07.616Z,41.25
2023-01-22T22:06:11.198Z,39.25
2023-01-22T22:11:13.941Z,42.15
2023-01-22T22:16:16.100Z,41.90
2023-01-22T22:21:18.226Z,42.17
2023-01-22T22:26:20.263Z,43.63
2023-01-22T22:31:22.681Z,41.67
2023-01-22T22:36:26.515Z,39.75
2023-01-22T22:41:31.016Z,43.72
2023-01-22T22:46:38.347Z,39.70
2023-01-22T22:51:42.017Z,39.47
2023-01-22T22:56:45.917Z,43.00
2023-01-22T23:01:49.553Z,47.95
2023-01-22T23:06:51.983Z,40.25
2023-01-22T23:11:56.082Z,38.78
2023-01-22T23:16:58.491Z,44.72
2023-01-22T23:22:01.159Z,45.55
2023-01-22T23:27:03.523Z,38.38
2023-01-22T23:32:05.881Z,39.83
2023-01-22T23:37:07.944Z,40.17
2023-01-22T23:42:10.405Z,40.38
2023-01-22T23:47:12.424Z,45.72
2023-01-22T23:52:14.482Z,40.85
2023-01-22T23:57:16.599Z,40.75
